Time;durP1;ratioP1;P1;durP2;ratioP2;P2;SDS_P1;SDS_P2;PMS_P1;PMS_P2;Temp;Humidity;BMP_temperature;BMP_pressure;BME280_temperature;BME280_humidity;BME280_pressure;Samples;Min_cycle;Max_cycle;Signal;HPM_P1;HPM_P2
2022/08/02 00:01:24;;;;;;;2.80;2.03;;;;;;;-145.69;100.00;71491.94;5053370;28;20210;-85
2022/08/02 00:03:54;;;;;;;3.60;2.20;;;;;;;-145.69;100.00;71485.97;5063332;28;20190;-84
2022/08/02 00:06:24;;;;;;;3.43;2.43;;;;;;;-145.69;100.00;71458.09;5072434;28;20856;-85
2022/08/02 00:08:54;;;;;;;6.72;2.60;;;;;;;-145.69;100.00;71454.13;5073518;28;20535;-85
2022/08/02 00:11:21;;;;;;;6.70;2.75;;;;;;;-145.69;100.00;71440.19;5073143;28;20256;-84
2022/08/02 00:13:47;;;;;;;7.50;2.60;;;;;;;-145.69;100.00;71438.22;5073168;28;20237;-86
2022/08/02 00:16:14;;;;;;;4.60;2.55;;;;;;;-145.69;100.00;71438.22;5072976;28;20557;-85
2022/08/02 00:18:46;;;;;;;7.50;2.40;;;;;;;-145.69;100.00;71440.19;5072883;28;20206;-86
2022/08/02 00:21:15;;;;;;;4.85;2.65;;;;;;;-145.69;100.00;71440.19;5072844;28;20199;-84
2022/08/02 00:23:42;;;;;;;5.10;2.72;;;;;;;-145.69;100.00;71432.25;5073031;28;20301;-84
2022/08/02 00:26:08;;;;;;;4.00;2.17;;;;;;;-145.69;100.00;71422.28;5073118;28;20468;-85
2022/08/02 00:28:35;;;;;;;4.50;2.60;;;;;;;-145.69;100.00;71418.31;5073081;28;20198;-85
2022/08/02 00:31:01;;;;;;;3.42;2.45;;;;;;;-145.69;100.00;71416.31;5073118;28;20202;-85
2022/08/02 00:33:28;;;;;;;3.33;2.33;;;;;;;-145.69;100.00;71404.38;5072578;28;20247;-86
2022/08/02 00:35:54;;;;;;;5.10;2.60;;;;;;;-145.69;100.00;71398.41;5073518;28;20221;-87
2022/08/02 00:38:25;;;;;;;3.70;2.38;;;;;;;-145.69;100.00;71394.44;5073204;28;20221;-89
2022/08/02 00:40:53;;;;;;;5.47;2.70;;;;;;;-145.69;100.00;71402.41;5073434;28;20203;-87
2022/08/02 00:43:20;;;;;;;3.13;2.50;;;;;;;-145.69;100.00;71400.41;5071775;28;20521;-86
2022/08/02 00:45:47;;;;;;;3.00;2.25;;;;;;;-145.69;100.00;71398.41;5072396;28;20197;-85
2022/08/02 00:48:13;;;;;;;5.13;2.22;;;;;;;-145.69;100.00;71406.38;5072040;28;20217;-84
2022/08/02 00:50:43;;;;;;;5.43;2.00;;;;;;;-145.69;100.00;71410.34;5071791;28;20783;-86
2022/08/02 00:53:17;;;;;;;4.32;2.33;;;;;;;-145.69;100.00;71410.34;5072504;28;20236;-84
2022/08/02 00:55:47;;;;;;;3.65;2.10;;;;;;;-145.69;100.00;71420.31;5072474;28;20198;-86
2022/08/02 00:58:15;;;;;;;4.00;1.95;;;;;;;-145.69;100.00;71426.28;5072882;28;20199;-84
2022/08/02 01:00:42;;;;;;;2.92;1.98;;;;;;;-145.69;100.00;71434.22;5071381;28;20206;-86
2022/08/02 01:03:08;;;;;;;3.30;1.98;;;;;;;-145.69;100.00;71436.22;5072765;28;20199;-84
2022/08/02 01:05:37;;;;;;;3.95;2.17;;;;;;;-145.69;100.00;71436.22;5074746;28;20209;-84
2022/08/02 01:08:06;;;;;;;8.10;2.38;;;;;;;-145.69;100.00;71436.22;5076649;28;20285;-84
2022/08/02 01:10:33;;;;;;;3.15;2.30;;;;;;;-145.69;100.00;71442.19;5076487;28;20205;-84
2022/08/02 01:13:00;;;;;;;4.60;2.40;;;;;;;-145.69;100.00;71446.16;5075311;28;20240;-85
2022/08/02 01:15:28;;;;;;;3.67;2.42;;;;;;;-145.69;100.00;71458.09;5076685;28;20191;-85
2022/08/02 01:21:37;;;;;;;3.20;1.90;;;;;;;-145.69;100.00;71454.13;5073793;28;20244;-86
2022/08/02 01:24:19;;;;;;;4.30;2.50;;;;;;;-145.69;100.00;71460.09;5074228;28;20238;-86
2022/08/02 01:26:51;;;;;;;4.63;2.70;;;;;;;-145.69;100.00;71478.00;5076349;28;20206;-85
2022/08/02 01:29:28;;;;;;;3.55;2.13;;;;;;;-145.69;100.00;71489.94;5076390;28;20256;-86
2022/08/02 01:32:09;;;;;;;3.63;2.10;;;;;;;-145.69;100.00;71493.94;5076198;28;20681;-86
2022/08/02 01:34:42;;;;;;;3.45;2.08;;;;;;;-145.69;100.00;71505.88;5076317;28;20221;-87
2022/08/02 01:37:20;;;;;;;3.67;2.40;;;;;;;-145.69;100.00;71499.91;5076195;28;20282;-86
2022/08/02 01:39:51;;;;;;;4.30;2.50;;;;;;;-145.69;100.00;71507.84;5076209;28;20199;-85
2022/08/02 01:42:19;;;;;;;4.90;2.63;;;;;;;-145.69;100.00;71505.88;5075014;28;20210;-85
2022/08/02 01:44:49;;;;;;;4.50;2.60;;;;;;;-145.69;100.00;71505.88;5058053;28;20199;-83
2022/08/02 01:47:19;;;;;;;5.32;2.80;;;;;;;-145.69;100.00;71513.81;5055741;28;20657;-85
2022/08/02 01:49:49;;;;;;;3.63;2.40;;;;;;;-145.69;100.00;71515.81;5056509;28;20235;-84
2022/08/02 01:52:24;;;;;;;4.57;2.65;;;;;;;-145.69;100.00;71509.84;5075759;28;20231;-87
2022/08/02 01:55:02;;;;;;;5.25;2.80;;;;;;;-145.69;100.00;71515.81;5075941;28;20202;-87
2022/08/02 01:57:33;;;;;;;3.87;2.50;;;;;;;-145.69;100.00;71511.84;5075744;28;20206;-86
2022/08/02 02:00:03;;;;;;;4.35;2.75;;;;;;;-145.69;100.00;71507.84;5075731;28;20198;-87
2022/08/02 02:02:31;;;;;;;4.82;2.60;;;;;;;-145.69;100.00;71505.88;5075802;28;20293;-86
2022/08/02 02:04:59;;;;;;;5.80;2.70;;;;;;;-145.69;100.00;71517.81;5075935;28;20203;-86
2022/08/02 02:07:26;;;;;;;6.47;3.17;;;;;;;-145.69;100.00;71513.81;5075496;28;20203;-86
2022/08/02 02:09:55;;;;;;;4.97;2.33;;;;;;;-145.69;100.00;71527.75;5075535;28;20202;-88
2022/08/02 02:12:23;;;;;;;5.65;2.60;;;;;;;-145.69;100.00;71519.81;5073071;28;20233;-85
2022/08/02 02:14:50;;;;;;;6.80;2.73;;;;;;;-145.69;100.00;71525.78;5075884;28;20202;-87
2022/08/02 02:17:20;;;;;;;4.70;2.90;;;;;;;-145.69;100.00;71521.78;5053974;28;20682;-86
2022/08/02 02:19:47;;;;;;;5.43;3.70;;;;;;;-145.69;100.00;71527.75;5069527;28;20198;-84
2022/08/02 02:22:14;;;;;;;3.37;2.10;;;;;;;-145.69;100.00;71533.72;5075408;28;20207;-87
2022/08/02 02:24:41;;;;;;;3.20;2.30;;;;;;;-145.69;100.00;71539.69;5075142;28;20260;-87
2022/08/02 02:27:09;;;;;;;4.15;2.60;;;;;;;-145.69;100.00;71541.69;5075387;28;20199;-85
2022/08/02 02:29:43;;;;;;;4.87;2.70;;;;;;;-145.69;100.00;71535.72;5075284;28;20642;-86
2022/08/02 02:32:11;;;;;;;8.87;2.90;;;;;;;-145.69;100.00;71543.69;5075072;28;20198;-86
2022/08/02 02:34:43;;;;;;;6.37;2.70;;;;;;;-145.69;100.00;71549.66;5075509;28;20286;-84
2022/08/02 02:37:16;;;;;;;3.77;2.40;;;;;;;-145.69;100.00;71559.59;5074888;28;20298;-85
2022/08/02 02:39:48;;;;;;;4.83;3.00;;;;;;;-145.69;100.00;71565.56;5074989;28;20622;-85
2022/08/02 02:42:18;;;;;;;6.67;2.63;;;;;;;-145.69;100.00;71571.53;5074759;28;20198;-87
2022/08/02 02:44:46;;;;;;;5.93;3.03;;;;;;;-145.69;100.00;71569.53;5074845;28;20199;-85
2022/08/02 02:47:16;;;;;;;6.87;2.73;;;;;;;-145.69;100.00;71573.53;5074956;28;20203;-85
2022/08/02 02:49:47;;;;;;;7.27;2.77;;;;;;;-145.69;100.00;71577.50;5074709;28;20272;-87
2022/08/02 02:52:15;;;;;;;8.27;2.63;;;;;;;-145.69;100.00;71581.50;5075036;28;20207;-86
2022/08/02 02:54:42;;;;;;;4.10;2.83;;;;;;;-145.69;100.00;71567.56;5074899;28;20622;-85
2022/08/02 02:57:10;;;;;;;4.50;3.27;;;;;;;-145.69;100.00;71573.53;5074319;28;20211;-85
2022/08/02 02:59:39;;;;;;;4.57;2.97;;;;;;;-145.69;100.00;71581.50;5074203;28;20187;-86
2022/08/02 03:02:09;;;;;;;6.10;3.10;;;;;;;-145.69;100.00;71583.47;5074671;28;20204;-85
2022/08/02 03:04:37;;;;;;;5.47;2.77;;;;;;;-145.69;100.00;71583.47;5074614;28;20642;-86
2022/08/02 03:07:05;;;;;;;5.93;2.87;;;;;;;-145.69;100.00;71577.50;5074429;28;20664;-84
2022/08/02 03:09:32;;;;;;;6.90;3.70;;;;;;;-145.69;100.00;71575.50;5074094;28;20199;-84
2022/08/02 03:11:58;;;;;;;9.07;3.57;;;;;;;-145.69;100.00;71571.53;5074653;28;20206;-84
2022/08/02 03:14:28;;;;;;;5.27;3.20;;;;;;;-145.69;100.00;71569.53;5073857;28;20226;-86
2022/08/02 03:16:58;;;;;;;5.50;3.07;;;;;;;-145.69;100.00;71573.53;5074275;28;20281;-86
2022/08/02 03:19:24;;;;;;;6.63;3.50;;;;;;;-145.69;100.00;71573.53;5074143;28;20199;-85
2022/08/02 03:21:51;;;;;;;4.47;2.90;;;;;;;-145.69;100.00;71577.50;5074375;28;20202;-86
2022/08/02 03:24:20;;;;;;;5.77;3.17;;;;;;;-145.69;100.00;71591.44;5074555;28;20241;-86
2022/08/02 03:26:51;;;;;;;6.50;2.83;;;;;;;-145.69;100.00;71593.44;5074347;28;20206;-87
2022/08/02 03:29:17;;;;;;;4.93;2.93;;;;;;;-145.69;100.00;71603.38;5073477;28;20461;-86
2022/08/02 03:31:46;;;;;;;7.80;3.27;;;;;;;-145.69;100.00;71603.38;5073717;28;20553;-87
2022/08/02 03:34:13;;;;;;;8.40;2.93;;;;;;;-145.69;100.00;71607.34;5073783;28;20712;-86
2022/08/02 03:36:41;;;;;;;5.60;3.10;;;;;;;-145.69;100.00;71615.31;5074325;28;20202;-86
2022/08/02 03:39:09;;;;;;;5.78;3.55;;;;;;;-145.69;100.00;71625.25;5073388;28;20446;-86
2022/08/02 03:41:38;;;;;;;5.40;3.13;;;;;;;-145.69;100.00;71629.25;5073892;28;20198;-87
2022/08/02 03:44:06;;;;;;;10.53;3.80;;;;;;;-145.69;100.00;71619.28;5074142;28;20202;-87
2022/08/02 03:46:34;;;;;;;7.90;3.53;;;;;;;-145.69;100.00;71609.34;5072105;28;20198;-88
2022/08/02 03:49:01;;;;;;;7.60;4.17;;;;;;;-145.69;100.00;71599.41;5071678;28;20291;-87
2022/08/02 03:51:28;;;;;;;6.30;3.53;;;;;;;-145.69;100.00;71597.41;5073506;28;20203;-87
2022/08/02 03:53:56;;;;;;;11.43;3.40;;;;;;;-145.69;100.00;71605.38;5056262;28;20223;-86
2022/08/02 03:56:24;;;;;;;11.70;4.10;;;;;;;-145.69;100.00;71581.50;5053623;28;20210;-85
2022/08/02 03:59:05;;;;;;;7.47;3.67;;;;;;;-145.69;100.00;71587.47;5054316;28;20539;-84
2022/08/02 04:01:32;;;;;;;9.30;3.70;;;;;;;-145.69;100.00;71593.44;5073158;28;20195;-85
2022/08/02 04:03:58;;;;;;;10.47;3.60;;;;;;;-145.69;100.00;71589.44;5073119;28;20203;-87
2022/08/02 04:06:27;;;;;;;8.57;4.37;;;;;;;-145.69;100.00;71569.53;5073435;28;20199;-85
2022/08/02 04:08:53;;;;;;;6.40;3.90;;;;;;;-145.69;100.00;71559.59;5073419;28;20229;-86
2022/08/02 04:11:32;;;;;;;7.90;3.47;;;;;;;-145.69;100.00;71561.59;5073276;28;20195;-86
2022/08/02 04:14:07;;;;;;;7.93;4.70;;;;;;;-145.69;100.00;71563.56;5072797;28;20932;-87
2022/08/02 04:16:41;;;;;;;9.63;3.97;;;;;;;-145.69;100.00;71571.53;5073633;28;20206;-86
2022/08/02 04:19:10;;;;;;;5.90;3.53;;;;;;;-145.69;100.00;71571.53;5073432;28;20272;-85
2022/08/02 04:21:40;;;;;;;8.73;3.63;;;;;;;-145.69;100.00;71569.53;5073121;28;20202;-86
2022/08/02 04:24:09;;;;;;;8.77;3.87;;;;;;;-145.69;100.00;71569.53;5073123;28;20214;-85
2022/08/02 04:26:37;;;;;;;5.83;3.57;;;;;;;-145.69;100.00;71557.59;5073072;28;20244;-84
2022/08/02 04:29:06;;;;;;;8.47;4.00;;;;;;;-145.69;100.00;71555.63;5072766;28;20238;-85
2022/08/02 04:31:37;;;;;;;8.80;3.20;;;;;;;-145.69;100.00;71557.59;5073169;28;20201;-85
2022/08/02 04:34:04;;;;;;;7.97;3.90;;;;;;;-145.69;100.00;71559.59;5072693;28;20730;-84
2022/08/02 04:36:35;;;;;;;7.80;3.70;;;;;;;-145.69;100.00;71565.56;5073274;28;20279;-87
2022/08/02 04:39:02;;;;;;;5.53;3.40;;;;;;;-145.69;100.00;71559.59;5073552;28;20191;-86
2022/08/02 04:41:46;;;;;;;8.30;3.53;;;;;;;-145.69;100.00;71561.59;5076751;28;20198;-85
2022/08/02 04:44:14;;;;;;;9.40;3.53;;;;;;;-145.69;100.00;71561.59;5077559;28;20249;-85
2022/08/02 04:46:43;;;;;;;5.63;4.00;;;;;;;-145.69;100.00;71559.59;5076689;28;20198;-86
2022/08/02 04:49:12;;;;;;;7.97;4.50;;;;;;;-145.69;100.00;71547.66;5076733;28;20901;-85
2022/08/02 04:51:40;;;;;;;10.25;4.18;;;;;;;-145.69;100.00;71549.66;5077205;28;20305;-85
2022/08/02 04:54:08;;;;;;;5.95;3.72;;;;;;;-145.69;100.00;71547.66;5076892;28;20227;-85
2022/08/02 04:56:34;;;;;;;6.68;3.90;;;;;;;-145.69;100.00;71545.66;5076901;28;20199;-84
2022/08/02 04:59:01;;;;;;;8.18;4.20;;;;;;;-145.69;100.00;71537.72;5076543;28;20194;-86
2022/08/02 05:01:29;;;;;;;8.75;3.78;;;;;;;-145.69;100.00;71535.72;5076810;28;20195;-85
2022/08/02 05:03:56;;;;;;;7.85;3.85;;;;;;;-145.69;100.00;71531.75;5076786;28;20210;-84
2022/08/02 05:06:22;;;;;;;6.00;3.42;;;;;;;-145.69;100.00;71523.78;5076551;28;20220;-85
2022/08/02 05:08:49;;;;;;;7.95;4.15;;;;;;;-145.69;100.00;71521.78;5076927;28;20531;-85
2022/08/02 05:11:16;;;;;;;5.38;3.70;;;;;;;-145.69;100.00;71513.81;5076569;28;20201;-87
2022/08/02 05:13:42;;;;;;;9.57;3.63;;;;;;;-145.69;100.00;71503.88;5076481;28;20697;-86
2022/08/02 05:16:09;;;;;;;7.38;3.75;;;;;;;-145.69;100.00;71495.91;5076329;28;20213;-87
2022/08/02 05:18:37;;;;;;;8.00;3.83;;;;;;;-145.69;100.00;71487.97;5076155;28;20199;-86
2022/08/02 05:21:04;;;;;;;6.60;4.10;;;;;;;-145.69;100.00;71485.97;5075420;28;20649;-87
2022/08/02 05:23:30;;;;;;;7.60;4.07;;;;;;;-145.69;100.00;71462.09;5075020;28;20206;-86
2022/08/02 05:25:59;;;;;;;7.72;4.13;;;;;;;-145.69;100.00;71444.19;5075531;28;20203;-86
2022/08/02 05:28:26;;;;;;;5.93;4.00;;;;;;;-145.69;100.00;71426.28;5076258;28;20203;-84
2022/08/02 05:30:52;;;;;;;8.30;4.28;;;;;;;-145.69;100.00;71414.34;5075708;28;20213;-85
2022/08/02 05:33:19;;;;;;;6.32;3.70;;;;;;;-145.69;100.00;71400.41;5074668;28;20206;-84
2022/08/02 05:35:47;;;;;;;6.80;3.83;;;;;;;-145.69;100.00;71386.47;5075996;28;20206;-82
2022/08/02 05:38:13;;;;;;;6.28;3.67;;;;;;;-145.69;100.00;71368.56;5075875;28;20199;-84
2022/08/02 05:40:40;;;;;;;6.07;3.47;;;;;;;-145.69;100.00;71350.66;5075823;28;20203;-83
2022/08/02 05:43:11;;;;;;;7.65;3.88;;;;;;;-145.69;100.00;71342.69;5075603;28;20221;-83
2022/08/02 05:45:38;;;;;;;5.15;3.47;;;;;;;-145.69;100.00;71336.72;5075774;28;20206;-81
2022/08/02 05:48:11;;;;;;;5.18;3.20;;;;;;;-145.69;100.00;71320.81;5075483;28;20214;-81
2022/08/02 05:50:44;;;;;;;5.10;2.88;;;;;;;-145.69;100.00;71318.81;5057045;28;20448;-84
2022/08/02 05:53:23;;;;;;;7.18;3.05;;;;;;;-145.69;100.00;71296.94;5055626;28;20203;-83
2022/08/02 05:56:04;;;;;;;5.97;2.88;;;;;;;-145.69;100.00;71279.03;5055545;28;20677;-83
2022/08/02 05:58:40;;;;;;;4.25;2.50;;;;;;;-145.69;100.00;71275.03;5055062;28;20213;-84
2022/08/02 06:01:13;;;;;;;3.25;2.30;;;;;;;-145.69;100.00;71275.03;5055460;28;20253;-85
2022/08/02 06:03:50;;;;;;;4.15;2.70;;;;;;;-145.69;100.00;71257.13;5055428;28;20219;-84
2022/08/02 06:06:23;;;;;;;5.50;2.60;;;;;;;-145.69;100.00;71249.19;5055659;28;20203;-84
2022/08/02 06:08:58;;;;;;;2.92;2.40;;;;;;;-145.69;100.00;71217.34;5053182;28;20195;-83
2022/08/02 06:11:37;;;;;;;4.70;2.70;;;;;;;-145.69;100.00;71203.41;5056252;28;20210;-84
2022/08/02 06:14:09;;;;;;;4.18;2.75;;;;;;;-145.69;100.00;71187.50;5075284;28;20313;-84
2022/08/02 06:16:35;;;;;;;2.67;2.28;;;;;;;-145.69;100.00;71171.56;5075238;28;20195;-84
2022/08/02 06:19:04;;;;;;;4.32;2.80;;;;;;;-145.69;100.00;71151.69;5075079;28;20221;-83
2022/08/02 06:21:31;;;;;;;3.58;2.70;;;;;;;-145.69;100.00;71151.69;5074978;28;20199;-84
2022/08/02 06:24:02;;;;;;;4.03;2.38;;;;;;;-145.69;100.00;71149.69;5074399;28;20211;-84
2022/08/02 06:26:32;;;;;;;2.67;1.88;;;;;;;-145.69;100.00;71135.75;5074882;28;20199;-83
2022/08/02 06:29:01;;;;;;;4.68;2.20;;;;;;;-145.69;100.00;71107.91;5074329;28;20626;-84
2022/08/02 06:31:31;;;;;;;3.75;2.00;;;;;;;-145.69;100.00;71068.13;5074974;28;20194;-84
2022/08/02 06:33:59;;;;;;;2.50;1.90;;;;;;;-145.69;100.00;71060.16;5072945;28;20229;-84
2022/08/02 06:36:36;;;;;;;2.95;2.15;;;;;;;-145.69;100.00;71030.31;5074389;28;20430;-84
2022/08/02 06:39:10;;;;;;;2.03;1.83;;;;;;;-145.69;100.00;71020.34;5074936;28;20546;-84
2022/08/02 06:41:41;;;;;;;3.55;1.70;;;;;;;-145.69;100.00;70982.56;5074756;28;20210;-84
2022/08/02 06:44:08;;;;;;;2.15;1.83;;;;;;;-145.69;100.00;70968.63;5074191;28;20205;-83
2022/08/02 06:46:35;;;;;;;3.72;2.22;;;;;;;-145.69;100.00;70968.63;5074359;28;20429;-82
2022/08/02 06:49:02;;;;;;;2.28;1.60;;;;;;;-145.69;100.00;70968.63;5073838;28;20214;-82
2022/08/02 06:51:32;;;;;;;2.25;1.55;;;;;;;-145.69;100.00;70974.59;5074226;28;20209;-83
2022/08/02 06:53:59;;;;;;;2.65;1.80;;;;;;;-145.69;100.00;70976.59;5074499;28;20226;-83
2022/08/02 06:56:29;;;;;;;3.47;1.70;;;;;;;-145.69;100.00;70964.66;5074362;28;20202;-83
2022/08/02 06:58:55;;;;;;;3.63;1.60;;;;;;;-145.69;100.00;70940.78;5074145;28;20195;-82
2022/08/02 07:01:24;;;;;;;1.58;1.48;;;;;;;-145.69;100.00;70916.91;5072247;28;20653;-82
2022/08/02 07:03:54;;;;;;;2.80;1.63;;;;;;;-145.69;100.00;70881.09;5072555;28;20225;-80
2022/08/02 07:06:22;;;;;;;2.55;1.50;;;;;;;-145.69;100.00;70889.03;5073227;28;20203;-83
2022/08/02 07:08:49;;;;;;;3.67;1.40;;;;;;;-145.69;100.00;70857.22;5073887;28;20299;-83
2022/08/02 07:11:15;;;;;;;3.72;1.33;;;;;;;-145.69;100.00;70871.13;5073622;28;20199;-83
2022/08/02 07:13:43;;;;;;;4.25;1.52;;;;;;;-145.69;100.00;70873.13;5073613;28;20657;-82
2022/08/02 07:16:10;;;;;;;3.33;1.40;;;;;;;-145.69;100.00;70851.25;5073988;28;20203;-83
2022/08/02 07:18:40;;;;;;;5.63;1.40;;;;;;;-145.69;97.03;70859.19;5074079;28;20199;-81
2022/08/02 07:21:09;;;;;;;2.50;1.30;;;;;;;-145.69;100.00;70833.34;5073810;28;20206;-81
2022/08/02 07:23:38;;;;;;;1.70;1.60;;;;;;;-145.69;100.00;70791.56;5073487;28;20191;-81
2022/08/02 07:26:09;;;;;;;1.58;1.00;;;;;;;-145.69;98.64;70781.59;5073874;28;20693;-82
2022/08/02 07:28:36;;;;;;;3.92;1.40;;;;;;;-145.69;100.00;70761.72;5073804;28;20226;-81
2022/08/02 07:31:04;;;;;;;1.40;1.27;;;;;;;-145.69;100.00;70735.84;5073560;28;20244;-79
2022/08/02 07:33:30;;;;;;;1.35;1.25;;;;;;;-145.69;92.27;70725.91;5073474;28;20199;-80
2022/08/02 07:35:57;;;;;;;2.63;1.30;;;;;;;-145.69;92.98;70713.97;5073697;28;20230;-79
2022/08/02 07:38:24;;;;;;;1.95;1.17;;;;;;;-145.69;87.87;70690.09;5073751;28;20561;-79
2022/08/02 07:40:50;;;;;;;1.85;1.50;;;;;;;-145.69;90.14;70694.06;5073462;28;20203;-79
2022/08/02 07:43:19;;;;;;;3.38;1.40;;;;;;;-145.69;87.92;70656.25;5073790;28;20199;-80
2022/08/02 07:45:45;;;;;;;5.13;1.60;;;;;;;-145.69;86.74;70644.31;5071402;28;20661;-83
2022/08/02 07:48:14;;;;;;;1.60;1.30;;;;;;;-145.69;85.80;70606.53;5055164;28;20515;-84
2022/08/02 07:50:41;;;;;;;2.03;1.30;;;;;;;-145.69;86.25;70568.72;5053194;28;20281;-82
2022/08/02 07:53:07;;;;;;;4.30;1.40;;;;;;;-145.69;80.29;70592.59;5057817;28;20203;-81
2022/08/02 07:55:40;;;;;;;1.92;1.10;;;;;;;-145.69;76.43;70596.59;5072920;28;20226;-81
2022/08/02 07:58:07;;;;;;;1.25;1.13;;;;;;;-145.69;77.60;70600.56;5073215;28;20199;-81
2022/08/02 08:00:35;;;;;;;1.95;1.15;;;;;;;-145.69;76.99;70562.75;5073277;28;20206;-81
2022/08/02 08:03:01;;;;;;;2.95;1.25;;;;;;;-145.69;76.66;70600.56;5071467;28;20281;-81
2022/08/02 08:05:29;;;;;;;3.03;1.17;;;;;;;-145.69;79.41;70610.50;5072977;28;20319;-81
2022/08/02 08:07:56;;;;;;;0.80;0.80;;;;;;;-145.69;77.15;70598.56;5073261;28;20553;-81
2022/08/02 08:10:22;;;;;;;1.38;1.20;;;;;;;-145.69;84.55;70590.63;5073156;28;20537;-80
2022/08/02 08:12:49;;;;;;;3.08;1.10;;;;;;;-145.69;86.13;70596.59;5073170;28;20214;-81
2022/08/02 08:15:15;;;;;;;4.13;1.40;;;;;;;-145.69;84.63;70582.66;5072921;28;20581;-82
2022/08/02 08:17:45;;;;;;;2.15;1.25;;;;;;;-145.69;78.16;70622.44;5072960;28;20195;-81
2022/08/02 08:20:12;;;;;;;1.58;1.10;;;;;;;-145.69;69.69;70632.38;5072665;28;20214;-81
2022/08/02 08:22:40;;;;;;;1.27;1.08;;;;;;;-145.69;74.63;70624.44;5071212;28;20190;-81
2022/08/02 08:25:07;;;;;;;1.15;1.00;;;;;;;-145.69;75.54;70634.38;5070933;28;20209;-82
2022/08/02 08:27:33;;;;;;;1.33;1.20;;;;;;;-145.69;73.18;70654.28;5070884;28;20205;-82
2022/08/02 08:30:00;;;;;;;2.63;1.55;;;;;;;-145.69;77.86;70646.31;5071453;28;20218;-80
2022/08/02 08:32:29;;;;;;;4.80;1.40;;;;;;;-145.69;78.63;70638.34;5071473;28;20645;-81
2022/08/02 08:34:55;;;;;;;3.15;1.20;;;;;;;-145.69;79.54;70634.38;5071703;28;20734;-80
2022/08/02 08:37:24;;;;;;;2.08;1.40;;;;;;;-145.69;81.99;70622.44;5072174;28;20657;-80
2022/08/02 08:39:52;;;;;;;4.22;1.17;;;;;;;-145.69;78.42;70592.59;5072794;28;20198;-81
2022/08/02 08:42:19;;;;;;;2.83;1.30;;;;;;;-145.69;75.79;70570.72;5072764;28;20557;-81
2022/08/02 08:44:45;;;;;;;3.45;1.38;;;;;;;-145.69;75.86;70574.69;5072998;28;20210;-81
2022/08/02 08:47:12;;;;;;;4.05;1.25;;;;;;;-145.69;77.47;70578.69;5072734;28;20214;-83
2022/08/02 08:49:47;;;;;;;1.63;1.00;;;;;;;-145.69;72.07;70580.66;5072625;28;20235;-81
2022/08/02 08:52:19;;;;;;;2.67;1.20;;;;;;;-145.69;74.05;70582.66;5072652;28;20209;-81
2022/08/02 08:54:49;;;;;;;5.47;1.58;;;;;;;-145.69;75.08;70570.72;5072630;28;20226;-81
2022/08/02 08:57:19;;;;;;;5.43;1.35;;;;;;;-145.69;74.88;70566.75;5072519;28;20665;-81
2022/08/02 08:59:48;;;;;;;4.05;1.10;;;;;;;-145.69;73.10;70548.84;5072510;28;20203;-81
2022/08/02 09:02:20;;;;;;;1.52;1.20;;;;;;;-145.69;73.45;70546.84;5072704;28;20202;-80
2022/08/02 09:04:48;;;;;;;4.45;1.20;;;;;;;-145.69;72.18;70544.84;5072384;28;20613;-81
2022/08/02 09:07:14;;;;;;;2.00;1.30;;;;;;;-145.69;72.35;70520.97;5072613;28;20199;-81
2022/08/02 09:09:41;;;;;;;2.80;1.10;;;;;;;-145.69;69.62;70517.00;5072464;28;20202;-82
2022/08/02 09:12:14;;;;;;;2.15;1.27;;;;;;;-145.69;67.37;70507.06;5072274;28;20756;-80
2022/08/02 09:14:43;;;;;;;1.17;1.08;;;;;;;-145.69;66.38;70526.94;5072519;28;20226;-80
2022/08/02 09:17:14;;;;;;;2.38;1.52;;;;;;;-145.69;65.93;70522.97;5072389;28;20277;-82
2022/08/02 09:19:40;;;;;;;3.78;1.60;;;;;;;-145.69;69.04;70520.97;5072538;28;20198;-81
2022/08/02 09:22:08;;;;;;;4.50;1.05;;;;;;;-145.69;68.47;70487.16;5072190;28;20199;-82
2022/08/02 09:24:43;;;;;;;1.67;1.25;;;;;;;-145.69;67.67;70520.97;5072162;28;20203;-83
2022/08/02 09:27:11;;;;;;;2.65;1.30;;;;;;;-145.69;68.72;70491.13;5075380;28;20538;-84
2022/08/02 09:29:37;;;;;;;1.85;1.45;;;;;;;-145.69;68.64;70491.13;5076335;28;20321;-81
2022/08/02 09:32:08;;;;;;;2.08;1.40;;;;;;;-145.69;69.97;70471.25;5076172;28;20210;-80
2022/08/02 09:34:48;;;;;;;6.53;1.33;;;;;;;-145.69;70.18;70451.34;5076398;28;20195;-83
2022/08/02 09:37:24;;;;;;;3.45;1.52;;;;;;;-145.69;66.00;70447.38;5075899;28;20201;-79
2022/08/02 09:39:51;;;;;;;1.73;1.40;;;;;;;-145.69;67.30;70473.22;5076129;28;20205;-81
2022/08/02 09:42:20;;;;;;;1.20;1.10;;;;;;;-145.69;67.00;70473.22;5075690;28;20198;-81
2022/08/02 09:44:57;;;;;;;1.92;1.27;;;;;;;-145.69;70.23;70451.34;5071226;28;20203;-82
2022/08/02 09:47:25;;;;;;;2.25;1.38;;;;;;;-145.69;68.23;70439.41;5055626;28;20294;-80
2022/08/02 09:49:54;;;;;;;1.88;1.30;;;;;;;-145.69;66.37;70407.59;5055423;28;20780;-81
2022/08/02 09:52:28;;;;;;;5.55;1.45;;;;;;;-145.69;67.07;70391.66;5073331;28;20252;-82
2022/08/02 09:54:55;;;;;;;5.28;1.42;;;;;;;-145.69;67.23;70371.78;5075706;28;20269;-81
2022/08/02 09:57:26;;;;;;;2.55;1.40;;;;;;;-145.69;66.16;70381.72;5075619;28;20202;-81
2022/08/02 09:59:54;;;;;;;2.80;1.30;;;;;;;-145.69;65.98;70357.84;5075630;28;20248;-82
2022/08/02 10:02:21;;;;;;;3.40;1.48;;;;;;;-145.69;64.48;70371.78;5075307;28;20195;-82
2022/08/02 10:04:49;;;;;;;4.53;1.33;;;;;;;-145.69;64.36;70353.88;5075169;28;20221;-81
2022/08/02 10:07:16;;;;;;;4.50;1.40;;;;;;;-145.69;63.51;70316.06;5075296;28;20680;-81
2022/08/02 10:09:44;;;;;;;1.85;1.40;;;;;;;-145.69;63.99;70288.22;5075503;28;20210;-81
2022/08/02 10:12:11;;;;;;;4.70;1.50;;;;;;;-145.69;60.53;70332.00;5075133;28;20238;-81
2022/08/02 10:14:40;;;;;;;2.05;1.50;;;;;;;-145.69;62.23;70328.00;5075303;28;20203;-82
2022/08/02 10:17:10;;;;;;;2.25;1.67;;;;;;;-145.69;63.98;70298.16;5075292;28;20201;-81
2022/08/02 10:19:39;;;;;;;2.10;1.35;;;;;;;-145.69;62.31;70262.38;5075716;28;20213;-84
2022/08/02 10:22:11;;;;;;;3.65;1.77;;;;;;;-145.69;59.63;70276.28;5073587;28;20215;-81
2022/08/02 10:24:40;;;;;;;3.95;1.33;;;;;;;-145.69;65.53;70286.25;5074117;28;20205;-82
2022/08/02 10:27:07;;;;;;;2.28;1.38;;;;;;;-145.69;64.70;70240.47;5074714;28;20213;-82
2022/08/02 10:29:35;;;;;;;1.70;1.25;;;;;;;-145.69;60.01;70240.47;5074550;28;20207;-83
2022/08/02 10:32:08;;;;;;;1.50;1.30;;;;;;;-145.69;58.67;70204.69;5073878;28;20195;-81
2022/08/02 10:34:41;;;;;;;1.77;1.40;;;;;;;-145.69;56.12;70212.63;5070217;28;21365;-78
2022/08/02 10:37:11;;;;;;;3.22;1.25;;;;;;;-145.69;57.42;70184.78;5072127;28;20209;-82
2022/08/02 10:39:41;;;;;;;2.05;1.35;;;;;;;-145.69;60.05;70200.69;5073891;28;20201;-77
2022/08/02 10:42:08;;;;;;;3.35;1.30;;;;;;;-145.69;61.42;70172.84;5074947;28;20209;-78
2022/08/02 10:44:35;;;;;;;1.88;1.10;;;;;;;-145.69;58.47;70208.66;5074317;28;20203;-80
2022/08/02 10:47:23;;;;;;;2.08;1.20;;;;;;;-145.69;57.72;70190.75;5073121;28;20201;-80
2022/08/02 10:49:52;;;;;;;1.30;1.15;;;;;;;-145.69;54.84;70190.75;5073978;28;20249;-80
2022/08/02 10:52:21;;;;;;;5.82;1.42;;;;;;;-145.69;55.03;70188.75;5074244;28;20605;-81
2022/08/02 10:54:50;;;;;;;2.70;1.17;;;;;;;-145.69;56.26;70158.94;5074170;28;20650;-81
2022/08/02 10:57:20;;;;;;;3.47;1.38;;;;;;;-145.69;56.61;70196.72;5074466;28;20202;-80
2022/08/02 10:59:47;;;;;;;2.97;1.20;;;;;;;-145.69;58.87;70212.63;5074452;28;20209;-81
2022/08/02 11:02:33;;;;;;;1.80;1.38;;;;;;;-145.69;60.06;70240.47;5074325;28;20194;-81
2022/08/02 11:05:12;;;;;;;5.25;1.27;;;;;;;-145.69;60.46;70240.47;5074381;28;20206;-81
2022/08/02 11:07:41;;;;;;;8.95;1.83;;;;;;;-145.69;58.46;70160.91;5074071;28;20198;-77
2022/08/02 11:10:28;;;;;;;3.42;1.42;;;;;;;-145.69;58.51;70107.19;5074109;28;20195;-82
2022/08/02 11:13:07;;;;;;;3.08;1.13;;;;;;;-145.69;54.70;70085.31;5073518;28;20554;-81
2022/08/02 11:15:55;;;;;;;2.22;1.20;;;;;;;-145.69;53.44;70073.38;5073789;28;20226;-82
2022/08/02 11:18:23;;;;;;;3.38;1.30;;;;;;;-145.69;52.24;70121.13;5074032;28;20203;-82
2022/08/02 11:21:20;;;;;;;4.90;1.02;;;;;;;-145.69;55.27;70152.97;5073719;28;20662;-82
2022/08/02 11:23:49;;;;;;;2.45;1.15;;;;;;;-145.69;53.06;70097.25;5073116;28;20441;-81
2022/08/02 11:26:44;;;;;;;1.70;1.10;;;;;;;-145.69;52.29;70041.56;5073948;28;20198;-80